Time;durP1;ratioP1;P1;durP2;ratioP2;P2;SDS_P1;SDS_P2;PMS_P1;PMS_P2;Temp;Humidity;BMP_temperature;BMP_pressure;BME280_temperature;BME280_humidity;BME280_pressure;Samples;Min_cycle;Max_cycle;Signal;HPM_P1;HPM_P2
2022/12/14 00:01:20;;;;;;;;;;;0.20;99.90;;;;;;5072460;28;19908;-82
2022/12/14 00:03:46;;;;;;;;;;;0.20;99.90;;;;;;5072721;28;20374;-81
2022/12/14 00:06:13;;;;;;;;;;;0.10;99.90;;;;;;5074519;28;19920;-81
2022/12/14 00:08:39;;;;;;;;;;;0.10;99.90;;;;;;5073054;28;19912;-84
2022/12/14 00:11:05;;;;;;;;;;;0.10;99.90;;;;;;5072421;28;19973;-81
2022/12/14 00:13:30;;;;;;;;;;;0.10;99.90;;;;;;5072993;28;19908;-83
2022/12/14 00:15:56;;;;;;;;;;;0.20;99.90;;;;;;5073767;28;19912;-83
2022/12/14 00:18:21;;;;;;;;;;;0.20;99.90;;;;;;5074028;28;19916;-84
2022/12/14 00:20:46;;;;;;;;;;;0.20;99.90;;;;;;5073968;28;19916;-82
2022/12/14 00:23:12;;;;;;;;;;;0.20;99.90;;;;;;5072387;28;19908;-81
2022/12/14 00:25:37;;;;;;;;;;;0.30;99.90;;;;;;5072626;28;20371;-83
2022/12/14 00:28:03;;;;;;;;;;;0.30;99.90;;;;;;5074327;28;19908;-81
2022/12/14 00:30:28;;;;;;;;;;;0.30;99.90;;;;;;5072820;28;19908;-81
2022/12/14 00:32:54;;;;;;;;;;;0.30;99.90;;;;;;5072258;28;19972;-81
2022/12/14 00:35:19;;;;;;;;;;;0.30;99.90;;;;;;5072812;28;20003;-81
2022/12/14 00:37:45;;;;;;;;;;;0.30;99.90;;;;;;5072337;28;19912;-81
2022/12/14 00:40:10;;;;;;;;;;;0.30;99.90;;;;;;5072379;28;20326;-81
2022/12/14 00:42:36;;;;;;;;;;;0.30;99.90;;;;;;5072069;28;19909;-82
2022/12/14 00:45:03;;;;;;;;;;;0.40;99.90;;;;;;5073574;28;19912;-84
2022/12/14 00:47:28;;;;;;;;;;;0.40;99.90;;;;;;5072219;28;19954;-81
2022/12/14 00:49:54;;;;;;;;;;;0.40;99.90;;;;;;5072050;28;19908;-82
2022/12/14 00:52:19;;;;;;;;;;;0.40;99.90;;;;;;5071949;28;19909;-82
2022/12/14 00:54:44;;;;;;;;;;;0.50;99.90;;;;;;5072272;28;19970;-81
2022/12/14 00:57:10;;;;;;;;;;;0.50;99.90;;;;;;5073747;28;20425;-81
2022/12/14 00:59:35;;;;;;;;;;;0.50;99.90;;;;;;5071937;28;19908;-81
2022/12/14 01:02:01;;;;;;;;;;;0.50;99.90;;;;;;5073029;28;19919;-81
2022/12/14 01:04:27;;;;;;;;;;;0.50;99.90;;;;;;5073227;28;19912;-82
2022/12/14 01:06:52;;;;;;;;;;;0.50;99.90;;;;;;5072034;28;20003;-83
2022/12/14 01:09:19;;;;;;;;;;;0.60;99.90;;;;;;5075229;28;19908;-81
2022/12/14 01:11:44;;;;;;;;;;;0.50;99.90;;;;;;5075624;28;19908;-81
2022/12/14 01:14:11;;;;;;;;;;;0.50;99.90;;;;;;5077169;28;19909;-81
2022/12/14 01:16:37;;;;;;;;;;;0.50;99.90;;;;;;5075860;28;19908;-82
2022/12/14 01:19:02;;;;;;;;;;;0.50;99.90;;;;;;5075645;28;20312;-82
2022/12/14 01:21:28;;;;;;;;;;;0.50;99.90;;;;;;5076834;28;20413;-82
2022/12/14 01:23:54;;;;;;;;;;;0.50;99.90;;;;;;5075697;28;19912;-83
2022/12/14 01:26:20;;;;;;;;;;;0.50;99.90;;;;;;5077319;28;19931;-81
2022/12/14 01:28:47;;;;;;;;;;;0.50;99.90;;;;;;5077223;28;19908;-81
2022/12/14 01:31:14;;;;;;;;;;;0.50;99.90;;;;;;5076245;28;19916;-83
2022/12/14 01:33:39;;;;;;;;;;;0.50;99.90;;;;;;5075282;28;19935;-82
2022/12/14 01:36:09;;;;;;;;;;;0.50;99.90;;;;;;5075616;28;19908;-81
2022/12/14 01:38:35;;;;;;;;;;;0.50;99.90;;;;;;5075360;28;19948;-81
2022/12/14 01:41:01;;;;;;;;;;;0.40;99.90;;;;;;5075244;28;20344;-82
2022/12/14 01:44:05;;;;;;;;;;;0.40;99.90;;;;;;5076389;28;19909;-81
2022/12/14 01:46:40;;;;;;;;;;;0.40;99.90;;;;;;5014383;28;19910;-81
2022/12/14 01:49:12;;;;;;;;;;;0.40;99.90;;;;;;4998066;28;19922;-82
2022/12/14 01:51:38;;;;;;;;;;;0.40;99.90;;;;;;5040132;28;19908;-81
2022/12/14 01:54:06;;;;;;;;;;;0.40;99.90;;;;;;5075391;28;20011;-81
2022/12/14 01:56:33;;;;;;;;;;;0.30;99.90;;;;;;5076623;28;19913;-81
2022/12/14 01:59:00;;;;;;;;;;;0.30;99.90;;;;;;5075185;28;20017;-82
2022/12/14 02:01:26;;;;;;;;;;;0.20;99.90;;;;;;5074924;28;19975;-82
2022/12/14 02:03:52;;;;;;;;;;;0.10;99.90;;;;;;5063451;28;19919;-82
2022/12/14 02:06:27;;;;;;;;;;;0.10;99.90;;;;;;5056571;28;19916;-82
2022/12/14 02:08:54;;;;;;;;;;;0.10;99.90;;;;;;5055178;28;20392;-82
2022/12/14 02:11:26;;;;;;;;;;;0.10;99.90;;;;;;5054813;28;19909;-82
2022/12/14 02:13:51;;;;;;;;;;;0.00;99.90;;;;;;5055108;28;19920;-81
2022/12/14 02:16:17;;;;;;;;;;;0.00;99.90;;;;;;5056287;28;20366;-82
2022/12/14 02:18:42;;;;;;;;;;;0.00;99.90;;;;;;5054901;28;19916;-82
2022/12/14 02:21:19;;;;;;;;;;;-0.10;99.90;;;;;;5055018;28;19908;-81
2022/12/14 02:24:03;;;;;;;;;;;-0.10;99.90;;;;;;5056018;28;19916;-82
2022/12/14 02:26:35;;;;;;;;;;;-0.10;99.90;;;;;;5054946;28;20011;-82
2022/12/14 02:29:03;;;;;;;;;;;-0.10;99.90;;;;;;5056197;28;19913;-82
2022/12/14 02:31:39;;;;;;;;;;;-0.10;99.90;;;;;;5055548;28;19917;-81
2022/12/14 02:34:13;;;;;;;;;;;-0.10;99.90;;;;;;5055918;28;20356;-82
2022/12/14 02:36:43;;;;;;;;;;;0.00;99.90;;;;;;5055885;28;20385;-83
2022/12/14 02:39:20;;;;;;;;;;;0.00;99.90;;;;;;5054900;28;19944;-82
2022/12/14 02:42:04;;;;;;;;;;;0.00;99.90;;;;;;5054263;28;19910;-81
2022/12/14 02:44:45;;;;;;;;;;;0.00;99.90;;;;;;5054814;28;19909;-81
2022/12/14 02:47:11;;;;;;;;;;;0.10;99.90;;;;;;5055853;28;20278;-81
2022/12/14 02:49:59;;;;;;;;;;;0.10;99.90;;;;;;5054360;28;19916;-82
2022/12/14 02:52:33;;;;;;;;;;;0.10;99.90;;;;;;5053990;28;20285;-81
2022/12/14 02:54:58;;;;;;;;;;;0.10;99.90;;;;;;5055548;28;19909;-81
2022/12/14 02:57:30;;;;;;;;;;;0.10;99.90;;;;;;5054486;28;20377;-83
2022/12/14 02:59:56;;;;;;;;;;;0.10;99.90;;;;;;5053978;28;19916;-81
2022/12/14 03:02:22;;;;;;;;;;;0.10;99.90;;;;;;5053471;28;19909;-82
2022/12/14 03:04:48;;;;;;;;;;;0.20;99.90;;;;;;5054442;28;20480;-82
2022/12/14 03:07:22;;;;;;;;;;;0.20;99.90;;;;;;5053957;28;19908;-81
2022/12/14 03:09:48;;;;;;;;;;;0.20;99.90;;;;;;5053799;28;19908;-83
2022/12/14 03:12:14;;;;;;;;;;;0.20;99.90;;;;;;5053597;28;20042;-81
2022/12/14 03:14:43;;;;;;;;;;;0.30;99.90;;;;;;5055013;28;19909;-81
2022/12/14 03:17:11;;;;;;;;;;;0.30;99.90;;;;;;5053527;28;19915;-81
2022/12/14 03:19:39;;;;;;;;;;;0.30;99.90;;;;;;5053702;28;20059;-81
2022/12/14 03:22:09;;;;;;;;;;;0.20;99.90;;;;;;5052897;28;20133;-82
2022/12/14 03:24:41;;;;;;;;;;;0.30;99.90;;;;;;5055246;28;19935;-82
2022/12/14 03:27:11;;;;;;;;;;;0.30;99.90;;;;;;5054673;28;19916;-82
2022/12/14 03:29:39;;;;;;;;;;;0.30;99.90;;;;;;5054842;28;19909;-82
2022/12/14 03:32:07;;;;;;;;;;;0.40;99.90;;;;;;5053078;28;19968;-83
2022/12/14 03:34:34;;;;;;;;;;;0.30;99.90;;;;;;5054446;28;20355;-81
2022/12/14 03:37:00;;;;;;;;;;;0.30;99.90;;;;;;5054879;28;19909;-82
2022/12/14 03:39:28;;;;;;;;;;;0.40;99.90;;;;;;5053427;28;19938;-82
2022/12/14 03:42:11;;;;;;;;;;;0.30;99.90;;;;;;5052692;28;19958;-81
2022/12/14 03:44:40;;;;;;;;;;;0.30;99.90;;;;;;5053170;28;19940;-81
2022/12/14 03:47:16;;;;;;;;;;;0.40;99.90;;;;;;5053090;28;20290;-81
2022/12/14 03:49:50;;;;;;;;;;;0.40;99.90;;;;;;5054296;28;19961;-83
2022/12/14 03:52:16;;;;;;;;;;;0.30;99.90;;;;;;5053909;28;19934;-83
2022/12/14 03:54:47;;;;;;;;;;;0.30;99.90;;;;;;5054454;28;20000;-83
2022/12/14 03:57:12;;;;;;;;;;;0.30;99.90;;;;;;5053040;28;19908;-82
2022/12/14 03:59:44;;;;;;;;;;;0.30;99.90;;;;;;5054362;28;19919;-81
2022/12/14 04:02:15;;;;;;;;;;;0.30;99.90;;;;;;5053990;28;19940;-82
2022/12/14 04:04:41;;;;;;;;;;;0.30;99.90;;;;;;5052877;28;19909;-83
2022/12/14 04:07:16;;;;;;;;;;;0.30;99.90;;;;;;5052876;28;19976;-81
2022/12/14 04:10:02;;;;;;;;;;;0.40;99.90;;;;;;5052851;28;19912;-83
2022/12/14 04:21:08;;;;;;;;;;;0.40;99.90;;;;;;5053983;28;20046;-82
2022/12/14 04:26:23;;;;;;;;;;;0.40;99.90;;;;;;5054123;28;20313;-82
2022/12/14 04:31:41;;;;;;;;;;;0.40;99.90;;;;;;5053915;28;19928;-81
2022/12/14 04:34:10;;;;;;;;;;;0.50;99.90;;;;;;5052144;28;19909;-82
2022/12/14 04:36:41;;;;;;;;;;;0.40;99.90;;;;;;5053650;28;19991;-81
2022/12/14 04:39:10;;;;;;;;;;;0.50;99.90;;;;;;5052206;28;19913;-83
2022/12/14 04:41:38;;;;;;;;;;;0.50;99.90;;;;;;5053413;28;19909;-81
2022/12/14 04:44:12;;;;;;;;;;;0.50;99.90;;;;;;5051601;28;19916;-82
2022/12/14 04:46:39;;;;;;;;;;;0.50;99.90;;;;;;5052397;28;19909;-82
2022/12/14 04:49:12;;;;;;;;;;;0.40;99.90;;;;;;5053733;28;19908;-81
2022/12/14 04:51:43;;;;;;;;;;;0.50;99.90;;;;;;5051954;28;19916;-81
2022/12/14 04:54:21;;;;;;;;;;;0.40;99.90;;;;;;5052202;28;19909;-83
2022/12/14 04:56:55;;;;;;;;;;;0.40;99.90;;;;;;5053768;28;20387;-82
2022/12/14 04:59:21;;;;;;;;;;;0.50;99.90;;;;;;5052237;28;20283;-83
2022/12/14 05:01:55;;;;;;;;;;;0.50;99.90;;;;;;5051854;28;19923;-82
2022/12/14 05:04:32;;;;;;;;;;;0.50;99.90;;;;;;5052156;28;20355;-83
2022/12/14 05:07:16;;;;;;;;;;;0.60;99.90;;;;;;5052031;28;19915;-82
2022/12/14 05:09:51;;;;;;;;;;;0.50;99.90;;;;;;5051825;28;19916;-81
2022/12/14 05:12:24;;;;;;;;;;;0.60;99.90;;;;;;5052078;28;19913;-82
2022/12/14 05:15:08;;;;;;;;;;;0.60;99.90;;;;;;5052143;28;20394;-82
2022/12/14 05:17:35;;;;;;;;;;;0.50;99.90;;;;;;5051835;28;19913;-83
2022/12/14 05:20:00;;;;;;;;;;;0.50;99.90;;;;;;5052142;28;19908;-81
2022/12/14 05:22:26;;;;;;;;;;;0.60;99.90;;;;;;5051516;28;20355;-83
2022/12/14 05:24:51;;;;;;;;;;;0.60;99.90;;;;;;5053182;28;20309;-84
2022/12/14 05:27:17;;;;;;;;;;;0.60;99.90;;;;;;5051767;28;19909;-81
2022/12/14 05:29:42;;;;;;;;;;;0.60;99.90;;;;;;5051732;28;19909;-81
2022/12/14 05:32:10;;;;;;;;;;;0.60;99.90;;;;;;5051837;28;19963;-83
2022/12/14 05:34:35;;;;;;;;;;;0.60;99.90;;;;;;5052520;28;19913;-82
2022/12/14 05:37:01;;;;;;;;;;;0.60;99.90;;;;;;5052668;28;19913;-82
2022/12/14 05:39:27;;;;;;;;;;;0.70;99.90;;;;;;5053783;28;20011;-82
2022/12/14 05:41:52;;;;;;;;;;;0.70;99.90;;;;;;5055790;28;20519;-83
2022/12/14 05:44:17;;;;;;;;;;;0.70;99.90;;;;;;5058294;28;19916;-83
2022/12/14 05:46:43;;;;;;;;;;;0.70;99.90;;;;;;5057866;28;19909;-83
2022/12/14 05:49:09;;;;;;;;;;;0.70;99.90;;;;;;5058127;28;19909;-82
2022/12/14 05:51:35;;;;;;;;;;;0.70;99.90;;;;;;5057198;28;19916;-83
2022/12/14 05:54:00;;;;;;;;;;;0.80;99.90;;;;;;5057545;28;19909;-83
2022/12/14 05:56:26;;;;;;;;;;;0.80;99.90;;;;;;5059431;28;19931;-83
2022/12/14 05:58:51;;;;;;;;;;;0.80;99.90;;;;;;5061123;28;19924;-83
2022/12/14 06:01:16;;;;;;;;;;;0.80;99.90;;;;;;5060436;28;19915;-83
2022/12/14 06:03:42;;;;;;;;;;;0.80;99.90;;;;;;5059629;28;20286;-82
2022/12/14 06:06:09;;;;;;;;;;;0.80;99.90;;;;;;5059522;28;19916;-83
2022/12/14 06:08:35;;;;;;;;;;;0.80;99.90;;;;;;5059325;28;19909;-84
2022/12/14 06:11:11;;;;;;;;;;;0.80;99.90;;;;;;5058548;28;19917;-84
2022/12/14 06:13:38;;;;;;;;;;;0.80;99.90;;;;;;5058800;28;19909;-82
2022/12/14 06:16:07;;;;;;;;;;;0.80;99.90;;;;;;5058929;28;19909;-84
2022/12/14 06:18:33;;;;;;;;;;;0.80;99.90;;;;;;5058862;28;20007;-83
2022/12/14 06:20:58;;;;;;;;;;;0.80;99.90;;;;;;5058239;28;19948;-84
2022/12/14 06:23:23;;;;;;;;;;;0.90;99.90;;;;;;5054770;28;19912;-84
2022/12/14 06:25:54;;;;;;;;;;;0.80;99.90;;;;;;5055153;28;20414;-83
2022/12/14 06:28:19;;;;;;;;;;;0.90;99.90;;;;;;5054996;28;19913;-84
2022/12/14 06:30:48;;;;;;;;;;;0.80;99.90;;;;;;5055089;28;19955;-84
2022/12/14 06:33:14;;;;;;;;;;;0.80;99.90;;;;;;5056344;28;19916;-83
2022/12/14 06:35:43;;;;;;;;;;;0.80;99.90;;;;;;5056567;28;19916;-84
2022/12/14 06:38:09;;;;;;;;;;;0.80;99.90;;;;;;5055123;28;20047;-85
2022/12/14 06:40:35;;;;;;;;;;;0.80;99.90;;;;;;5056995;28;19935;-84
2022/12/14 06:43:00;;;;;;;;;;;0.70;99.90;;;;;;5054745;28;19912;-85
2022/12/14 06:45:27;;;;;;;;;;;0.70;99.90;;;;;;5056658;28;19919;-84
2022/12/14 06:47:52;;;;;;;;;;;0.70;99.90;;;;;;5054493;28;19913;-85
2022/12/14 06:50:18;;;;;;;;;;;0.80;99.90;;;;;;5054954;28;19933;-84
2022/12/14 06:52:43;;;;;;;;;;;0.80;99.90;;;;;;5055064;28;19908;-85
2022/12/14 06:55:09;;;;;;;;;;;0.80;99.90;;;;;;5054823;28;19909;-84
2022/12/14 06:57:34;;;;;;;;;;;0.80;99.90;;;;;;5056461;28;19920;-85
2022/12/14 07:00:00;;;;;;;;;;;0.80;99.90;;;;;;5054546;28;19978;-83
2022/12/14 07:02:25;;;;;;;;;;;0.90;99.90;;;;;;5055707;28;19916;-85
2022/12/14 07:04:51;;;;;;;;;;;0.80;99.90;;;;;;5054263;28;20366;-83
2022/12/14 07:07:16;;;;;;;;;;;0.80;99.90;;;;;;5055865;28;19913;-83
2022/12/14 07:09:42;;;;;;;;;;;0.90;99.90;;;;;;5055632;28;19916;-85
2022/12/14 07:12:07;;;;;;;;;;;0.90;99.90;;;;;;5057198;28;20011;-86
2022/12/14 07:14:32;;;;;;;;;;;0.90;99.90;;;;;;5055152;28;19909;-84
2022/12/14 07:16:58;;;;;;;;;;;0.90;99.90;;;;;;5054886;28;19935;-86
2022/12/14 07:19:23;;;;;;;;;;;0.90;99.90;;;;;;5054730;28;20281;-86
2022/12/14 07:21:49;;;;;;;;;;;0.90;99.90;;;;;;5054671;28;19909;-84
2022/12/14 07:24:14;;;;;;;;;;;0.90;99.90;;;;;;5053604;28;19909;-84
2022/12/14 07:26:40;;;;;;;;;;;0.90;99.90;;;;;;5055744;28;19908;-84
2022/12/14 07:29:05;;;;;;;;;;;1.00;99.90;;;;;;5055085;28;19909;-84
2022/12/14 07:31:31;;;;;;;;;;;0.90;99.90;;;;;;5053642;28;19928;-84
2022/12/14 07:33:57;;;;;;;;;;;0.90;99.90;;;;;;5055211;28;19999;-85
2022/12/14 07:36:24;;;;;;;;;;;0.90;99.90;;;;;;5053474;28;19916;-83
2022/12/14 07:38:50;;;;;;;;;;;0.90;99.90;;;;;;5053631;28;19920;-84
2022/12/14 07:41:17;;;;;;;;;;;0.90;99.90;;;;;;5054603;28;20362;-84
2022/12/14 07:43:43;;;;;;;;;;;0.90;99.90;;;;;;5053591;28;20370;-85
2022/12/14 07:46:11;;;;;;;;;;;0.90;99.90;;;;;;5053198;28;19939;-84
2022/12/14 07:48:37;;;;;;;;;;;0.90;99.90;;;;;;5052771;28;19908;-85
2022/12/14 07:51:03;;;;;;;;;;;0.90;99.90;;;;;;5054677;28;19908;-83
2022/12/14 07:53:29;;;;;;;;;;;0.90;99.90;;;;;;5053581;28;19915;-84
2022/12/14 07:55:54;;;;;;;;;;;0.90;99.90;;;;;;5053476;28;20355;-84
2022/12/14 07:58:19;;;;;;;;;;;0.90;99.90;;;;;;5053165;28;19966;-82
2022/12/14 08:00:45;;;;;;;;;;;0.90;99.90;;;;;;5053134;28;19931;-85
2022/12/14 08:03:10;;;;;;;;;;;0.90;99.90;;;;;;5053267;28;19913;-85
2022/12/14 08:05:39;;;;;;;;;;;0.90;99.90;;;;;;5054652;28;19967;-83
2022/12/14 08:08:04;;;;;;;;;;;1.00;99.90;;;;;;5054873;28;19913;-84
2022/12/14 08:10:30;;;;;;;;;;;1.10;99.90;;;;;;5054567;28;19916;-83
2022/12/14 08:12:55;;;;;;;;;;;1.10;99.90;;;;;;5054190;28;19909;-84
2022/12/14 08:15:21;;;;;;;;;;;1.10;99.90;;;;;;5054578;28;19920;-85
2022/12/14 08:17:46;;;;;;;;;;;1.20;99.90;;;;;;5052782;28;19955;-83
2022/12/14 08:20:11;;;;;;;;;;;1.30;99.90;;;;;;5052603;28;19909;-85
2022/12/14 08:22:37;;;;;;;;;;;1.30;99.90;;;;;;5052747;28;19913;-84
2022/12/14 08:25:02;;;;;;;;;;;1.30;99.90;;;;;;5052940;28;20251;-82
2022/12/14 08:27:31;;;;;;;;;;;1.40;99.90;;;;;;5052873;28;19932;-86
2022/12/14 08:29:56;;;;;;;;;;;1.50;99.90;;;;;;5054208;28;19916;-83
2022/12/14 08:32:22;;;;;;;;;;;1.60;99.90;;;;;;5052058;28;19917;-85
2022/12/14 08:34:47;;;;;;;;;;;1.70;99.90;;;;;;5053131;28;19915;-84
2022/12/14 08:37:13;;;;;;;;;;;1.70;99.90;;;;;;5053878;28;20404;-82
2022/12/14 08:39:38;;;;;;;;;;;1.70;99.90;;;;;;5052260;28;19931;-85
2022/12/14 08:42:03;;;;;;;;;;;1.70;99.90;;;;;;5053504;28;19995;-85
2022/12/14 08:44:29;;;;;;;;;;;1.70;99.90;;;;;;5052548;28;19908;-83
2022/12/14 08:46:54;;;;;;;;;;;1.60;99.90;;;;;;5052760;28;19912;-83
2022/12/14 08:49:20;;;;;;;;;;;1.70;99.90;;;;;;5052164;28;20382;-84
2022/12/14 08:51:45;;;;;;;;;;;1.70;99.90;;;;;;5052164;28;19960;-83
2022/12/14 08:54:11;;;;;;;;;;;1.80;99.90;;;;;;5054399;28;19952;-84
2022/12/14 08:56:37;;;;;;;;;;;1.80;99.90;;;;;;5054036;28;19909;-85
2022/12/14 08:59:02;;;;;;;;;;;1.80;99.90;;;;;;5052753;28;19919;-85
2022/12/14 09:01:28;;;;;;;;;;;1.80;99.90;;;;;;5052430;28;19944;-84
2022/12/14 09:03:54;;;;;;;;;;;1.80;99.90;;;;;;5052934;28;19955;-84
2022/12/14 09:06:25;;;;;;;;;;;1.80;99.90;;;;;;5052239;28;20358;-84
2022/12/14 09:08:50;;;;;;;;;;;1.80;99.90;;;;;;5054245;28;19909;-84
2022/12/14 09:11:17;;;;;;;;;;;1.90;99.90;;;;;;5051990;28;19916;-84
2022/12/14 09:13:43;;;;;;;;;;;2.00;99.90;;;;;;5052544;28;20359;-85
2022/12/14 09:16:13;;;;;;;;;;;2.00;99.90;;;;;;5052030;28;19908;-84
2022/12/14 09:18:39;;;;;;;;;;;2.10;99.90;;;;;;5052030;28;19912;-85
2022/12/14 09:21:05;;;;;;;;;;;2.10;99.90;;;;;;5051870;28;19931;-85
2022/12/14 09:23:31;;;;;;;;;;;2.20;99.90;;;;;;5052215;28;19971;-87
2022/12/14 09:26:16;;;;;;;;;;;2.20;99.90;;;;;;5053491;28;19908;-86
2022/12/14 09:28:44;;;;;;;;;;;2.30;99.90;;;;;;5053639;28;20366;-85
2022/12/14 09:31:11;;;;;;;;;;;2.30;99.90;;;;;;5056149;28;20000;-86
2022/12/14 09:33:36;;;;;;;;;;;2.30;99.90;;;;;;5056051;28;20397;-84
2022/12/14 09:36:03;;;;;;;;;;;2.30;99.90;;;;;;5057187;28;19909;-85
2022/12/14 09:38:30;;;;;;;;;;;2.40;99.90;;;;;;5055426;28;20432;-86
2022/12/14 09:40:57;;;;;;;;;;;2.50;99.90;;;;;;5055286;28;19916;-83
2022/12/14 09:43:30;;;;;;;;;;;2.50;99.90;;;;;;5055827;28;19909;-85
2022/12/14 09:45:58;;;;;;;;;;;2.50;99.90;;;;;;5056885;28;19909;-85
2022/12/14 09:48:24;;;;;;;;;;;2.30;99.90;;;;;;5055821;28;19915;-86
2022/12/14 09:50:51;;;;;;;;;;;2.20;99.90;;;;;;5055573;28;19909;-85
2022/12/14 09:53:17;;;;;;;;;;;2.10;99.90;;;;;;5056720;28;19908;-85
2022/12/14 09:55:51;;;;;;;;;;;2.20;99.90;;;;;;5056117;28;20359;-84
2022/12/14 09:58:20;;;;;;;;;;;2.20;99.90;;;;;;5056710;28;19912;-85
2022/12/14 10:00:49;;;;;;;;;;;2.20;99.90;;;;;;5055885;28;20008;-83
2022/12/14 10:03:14;;;;;;;;;;;2.30;99.90;;;;;;5056423;28;19909;-84
2022/12/14 10:06:03;;;;;;;;;;;2.40;99.90;;;;;;5055036;28;19908;-83
2022/12/14 10:08:28;;;;;;;;;;;2.40;99.90;;;;;;5046606;28;19909;-85
2022/12/14 10:10:54;;;;;;;;;;;2.30;99.90;;;;;;5055147;28;19992;-84
2022/12/14 10:13:22;;;;;;;;;;;2.30;99.90;;;;;;5056350;28;19916;-83
2022/12/14 10:15:51;;;;;;;;;;;2.30;99.90;;;;;;5054623;28;19909;-83
2022/12/14 10:18:17;;;;;;;;;;;2.40;99.90;;;;;;5054818;28;20421;-84
2022/12/14 10:20:52;;;;;;;;;;;2.40;99.90;;;;;;5055106;28;20286;-85
2022/12/14 10:23:19;;;;;;;;;;;2.30;99.90;;;;;;5054622;28;19909;-83
2022/12/14 10:25:47;;;;;;;;;;;2.20;99.90;;;;;;5054557;28;19952;-86
2022/12/14 10:28:14;;;;;;;;;;;2.10;99.90;;;;;;5055222;28;19993;-84
2022/12/14 10:30:41;;;;;;;;;;;2.00;99.90;;;;;;5054818;28;19909;-83
2022/12/14 10:33:20;;;;;;;;;;;2.00;99.90;;;;;;5055616;28;19923;-85
2022/12/14 10:35:49;;;;;;;;;;;2.00;99.90;;;;;;5056298;28;19908;-84
2022/12/14 10:38:21;;;;;;;;;;;1.90;99.90;;;;;;5056187;28;20285;-84
2022/12/14 10:40:48;;;;;;;;;;;1.90;99.90;;;;;;5055912;28;19915;-83
2022/12/14 10:43:19;;;;;;;;;;;1.90;99.90;;;;;;5054998;28;20011;-84
2022/12/14 10:45:59;;;;;;;;;;;2.00;99.90;;;;;;5054535;28;19908;-83
2022/12/14 10:48:30;;;;;;;;;;;2.10;99.90;;;;;;5054515;28;19908;-84
2022/12/14 10:51:08;;;;;;;;;;;2.20;99.90;;;;;;5055446;28;19941;-86
2022/12/14 10:53:40;;;;;;;;;;;2.30;99.90;;;;;;5055573;28;20023;-85
2022/12/14 10:56:09;;;;;;;;;;;2.30;99.90;;;;;;5054245;28;19916;-84
2022/12/14 10:58:35;;;;;;;;;;;2.20;99.90;;;;;;5055619;28;19952;-84
2022/12/14 11:01:00;;;;;;;;;;;2.30;99.90;;;;;;5053974;28;20293;-84
2022/12/14 11:03:27;;;;;;;;;;;2.30;99.90;;;;;;5054394;28;20510;-86
2022/12/14 11:06:06;;;;;;;;;;;2.40;99.90;;;;;;5054701;28;19916;-82
2022/12/14 11:08:41;;;;;;;;;;;2.40;99.90;;;;;;5055790;28;20473;-84
2022/12/14 11:11:08;;;;;;;;;;;2.40;99.90;;;;;;5053959;28;19908;-84
2022/12/14 11:13:34;;;;;;;;;;;2.50;99.90;;;;;;5055685;28;19908;-84
2022/12/14 11:16:14;;;;;;;;;;;2.40;99.90;;;;;;5055764;28;19913;-83
2022/12/14 11:18:39;;;;;;;;;;;2.50;99.90;;;;;;5055665;28;19912;-83
2022/12/14 11:21:05;;;;;;;;;;;2.50;99.90;;;;;;5053352;28;19995;-85
2022/12/14 11:23:46;;;;;;;;;;;2.60;99.90;;;;;;5053689;28;19960;-85
2022/12/14 11:26:19;;;;;;;;;;;2.70;99.90;;;;;;5053746;28;19909;-83
2022/12/14 11:28:46;;;;;;;;;;;2.70;99.90;;;;;;5053180;28;20022;-82
2022/12/14 11:33:56;;;;;;;;;;;2.70;99.90;;;;;;5129888;22;20007;-85
2022/12/14 11:36:27;;;;;;;;;;;2.80;99.90;;;;;;5097665;28;19910;-83
2022/12/14 11:38:53;;;;;;;;;;;2.70;99.90;;;;;;5094221;28;20381;-83
2022/12/14 11:41:19;;;;;;;;;;;2.70;99.90;;;;;;5096472;28;19915;-84
2022/12/14 11:43:44;;;;;;;;;;;2.70;99.90;;;;;;5099651;28;19912;-83
2022/12/14 11:46:11;;;;;;;;;;;2.80;99.90;;;;;;5097956;28;20365;-83
2022/12/14 11:48:45;;;;;;;;;;;2.70;99.90;;;;;;5093641;28;19959;-83
2022/12/14 11:51:11;;;;;;;;;;;2.60;99.90;;;;;;5092567;28;20003;-83
2022/12/14 11:53:37;;;;;;;;;;;2.50;99.90;;;;;;5095649;28;20384;-83
2022/12/14 11:56:04;;;;;;;;;;;2.50;99.90;;;;;;5104353;28;19908;-83
2022/12/14 11:58:36;;;;;;;;;;;2.50;99.90;;;;;;5102857;28;20324;-83
2022/12/14 12:01:09;;;;;;;;;;;2.50;99.90;;;;;;5101864;28;19908;-85
2022/12/14 12:03:36;;;;;;;;;;;2.50;99.90;;;;;;5102354;28;19916;-85
2022/12/14 12:06:04;;;;;;;;;;;2.50;99.90;;;;;;5103350;28;19908;-84
2022/12/14 12:08:31;;;;;;;;;;;2.70;99.90;;;;;;5103094;28;19908;-85
2022/12/14 12:10:58;;;;;;;;;;;2.80;99.90;;;;;;5103002;28;19919;-84
2022/12/14 12:13:29;;;;;;;;;;;2.90;99.90;;;;;;5097612;28;19947;-84
2022/12/14 12:15:56;;;;;;;;;;;3.10;99.90;;;;;;5093448;28;19912;-84
2022/12/14 12:18:32;;;;;;;;;;;3.10;99.90;;;;;;5079855;28;19920;-83
2022/12/14 12:21:01;;;;;;;;;;;3.20;99.90;;;;;;5090205;28;19970;-83
2022/12/14 12:23:48;;;;;;;;;;;3.30;99.90;;;;;;5090899;28;20014;-83
2022/12/14 12:26:22;;;;;;;;;;;3.20;99.90;;;;;;5082655;28;19908;-82
2022/12/14 12:28:55;;;;;;;;;;;3.20;99.90;;;;;;5091583;28;19990;-83
2022/12/14 12:31:25;;;;;;;;;;;3.10;99.90;;;;;;5092519;28;19938;-82
2022/12/14 12:33:54;;;;;;;;;;;3.20;99.90;;;;;;5092556;28;20296;-82
2022/12/14 12:36:20;;;;;;;;;;;3.20;99.90;;;;;;5094807;28;19908;-82
2022/12/14 12:38:56;;;;;;;;;;;3.40;99.90;;;;;;5099071;28;19971;-83
2022/12/14 12:41:24;;;;;;;;;;;3.50;99.90;;;;;;5098311;28;19916;-81
2022/12/14 12:43:53;;;;;;;;;;;3.70;99.90;;;;;;5093911;28;19908;-83
2022/12/14 12:46:23;;;;;;;;;;;4.10;99.90;;;;;;5093148;28;19915;-84
2022/12/14 12:48:50;;;;;;;;;;;4.90;99.90;;;;;;5092974;28;20026;-82
2022/12/14 12:51:26;;;;;;;;;;;6.10;99.90;;;;;;5091953;28;19908;-81
2022/12/14 12:53:58;;;;;;;;;;;6.70;99.90;;;;;;5096113;28;19934;-82
2022/12/14 12:56:25;;;;;;;;;;;7.10;99.90;;;;;;5096873;28;19908;-84
2022/12/14 12:58:51;;;;;;;;;;;7.80;99.90;;;;;;5093416;28;19915;-82
2022/12/14 13:01:20;;;;;;;;;;;8.40;99.90;;;;;;5092709;28;20327;-84
2022/12/14 13:03:47;;;;;;;;;;;8.70;99.90;;;;;;5093495;28;19908;-83
2022/12/14 13:06:18;;;;;;;;;;;8.90;99.90;;;;;;5098112;28;19908;-83
2022/12/14 13:08:45;;;;;;;;;;;9.80;98.20;;;;;;5095837;28;20401;-82
2022/12/14 13:11:16;;;;;;;;;;;11.10;94.20;;;;;;5095311;28;19908;-83
2022/12/14 13:13:45;;;;;;;;;;;12.00;90.70;;;;;;5097045;28;19969;-83
2022/12/14 13:16:17;;;;;;;;;;;12.40;82.70;;;;;;5096994;28;20591;-82
2022/12/14 13:18:44;;;;;;;;;;;12.80;79.00;;;;;;5096072;28;19928;-81
2022/12/14 13:21:30;;;;;;;;;;;13.60;74.90;;;;;;5095317;28;19920;-83
2022/12/14 13:23:56;;;;;;;;;;;14.00;69.50;;;;;;5095965;28;20264;-83
2022/12/14 13:26:40;;;;;;;;;;;14.20;66.10;;;;;;5095251;28;19912;-83
2022/12/14 13:29:29;;;;;;;;;;;14.50;64.50;;;;;;5096936;28;19955;-83
2022/12/14 13:32:21;;;;;;;;;;;14.20;60.40;;;;;;5098385;28;19920;-82
2022/12/14 13:34:59;;;;;;;;;;;12.70;60.30;;;;;;5109647;28;19947;-82
2022/12/14 13:37:43;;;;;;;;;;;11.60;62.50;;;;;;5099896;28;20003;-83
2022/12/14 13:40:12;;;;;;;;;;;10.60;66.20;;;;;;5101141;28;20431;-82
2022/12/14 13:42:44;;;;;;;;;;;9.80;70.90;;;;;;5099880;28;19912;-82
2022/12/14 13:45:17;;;;;;;;;;;8.80;73.30;;;;;;5100951;28;19950;-82
2022/12/14 13:47:48;;;;;;;;;;;8.40;78.40;;;;;;5098972;28;20374;-82
2022/12/14 13:50:28;;;;;;;;;;;7.90;83.20;;;;;;5097968;28;20369;-83
2022/12/14 13:52:59;;;;;;;;;;;7.40;85.90;;;;;;5098746;28;19908;-83
2022/12/14 13:55:25;;;;;;;;;;;6.90;90.40;;;;;;5097527;28;19968;-83
2022/12/14 13:57:51;;;;;;;;;;;6.50;92.90;;;;;;5097423;28;20010;-83
2022/12/14 14:00:35;;;;;;;;;;;6.30;95.00;;;;;;5098630;28;19958;-83
2022/12/14 14:03:01;;;;;;;;;;;5.90;96.40;;;;;;5098510;28;20503;-81
2022/12/14 14:05:36;;;;;;;;;;;5.40;98.80;;;;;;5097962;28;19914;-83
2022/12/14 14:08:21;;;;;;;;;;;5.20;99.90;;;;;;5094767;28;19946;-83
2022/12/14 14:10:47;;;;;;;;;;;5.00;99.90;;;;;;5093855;28;19908;-84
2022/12/14 14:13:33;;;;;;;;;;;4.80;99.90;;;;;;5096104;28;20011;-83
2022/12/14 14:16:10;;;;;;;;;;;4.70;99.90;;;;;;5093070;28;19998;-84
2022/12/14 14:18:45;;;;;;;;;;;4.50;99.90;;;;;;5095021;28;19912;-83
2022/12/14 14:21:19;;;;;;;;;;;4.40;99.90;;;;;;5094458;28;19908;-84
2022/12/14 14:23:53;;;;;;;;;;;4.30;99.90;;;;;;5094945;28;19908;-84
2022/12/14 14:26:29;;;;;;;;;;;4.30;99.90;;;;;;5094535;28;19909;-84
2022/12/14 14:29:07;;;;;;;;;;;4.30;99.90;;;;;;5095158;28;19973;-83
2022/12/14 14:31:44;;;;;;;;;;;4.20;99.90;;;;;;5095958;28;20316;-83
2022/12/14 14:34:14;;;;;;;;;;;4.00;99.90;;;;;;5095022;28;19930;-84
2022/12/14 14:36:43;;;;;;;;;;;4.00;99.90;;;;;;5095188;28;20423;-84
2022/12/14 14:39:25;;;;;;;;;;;3.80;99.90;;;;;;5095058;28;19912;-84
2022/12/14 14:41:51;;;;;;;;;;;3.70;99.90;;;;;;5094593;28;19908;-84
2022/12/14 14:44:23;;;;;;;;;;;3.50;99.90;;;;;;5095019;28;19915;-83
2022/12/14 14:46:49;;;;;;;;;;;3.40;99.90;;;;;;5095065;28;19908;-82
2022/12/14 14:49:32;;;;;;;;;;;3.20;99.90;;;;;;5094646;28;19908;-85
2022/12/14 14:52:17;;;;;;;;;;;3.10;99.90;;;;;;5094313;28;20010;-83
2022/12/14 14:54:42;;;;;;;;;;;2.90;99.90;;;;;;5095349;28;20391;-83
2022/12/14 14:57:26;;;;;;;;;;;2.70;99.90;;;;;;5095499;28;19908;-83